sensor_id;sensor_type;location;lat;lon;timestamp;P1;durP1;ratioP1;P2;durP2;ratioP2
40995;SDS011;26723;57.478;12.066;2023-04-30T00:01:24;2.53;;;1.30;;
40995;SDS011;26723;57.478;12.066;2023-04-30T00:04:33;1.70;;;1.27;;
40995;SDS011;26723;57.478;12.066;2023-04-30T00:07:42;2.40;;;1.30;;
40995;SDS011;26723;57.478;12.066;2023-04-30T00:10:50;3.00;;;1.60;;
40995;SDS011;26723;57.478;12.066;2023-04-30T00:14:00;2.90;;;1.57;;
40995;SDS011;26723;57.478;12.066;2023-04-30T00:17:09;1.83;;;1.20;;
40995;SDS011;26723;57.478;12.066;2023-04-30T00:20:18;2.57;;;1.60;;
40995;SDS011;26723;57.478;12.066;2023-04-30T00:23:26;3.07;;;1.30;;
40995;SDS011;26723;57.478;12.066;2023-04-30T00:26:35;2.37;;;1.20;;
40995;SDS011;26723;57.478;12.066;2023-04-30T00:29:45;2.07;;;1.50;;
40995;SDS011;26723;57.478;12.066;2023-04-30T00:32:53;3.17;;;2.00;;
40995;SDS011;26723;57.478;12.066;2023-04-30T00:36:02;1.43;;;1.20;;
40995;SDS011;26723;57.478;12.066;2023-04-30T00:39:11;1.70;;;1.43;;
40995;SDS011;26723;57.478;12.066;2023-04-30T00:42:20;2.73;;;1.40;;
40995;SDS011;26723;57.478;12.066;2023-04-30T00:45:29;1.83;;;1.20;;
40995;SDS011;26723;57.478;12.066;2023-04-30T00:48:38;1.63;;;1.40;;
40995;SDS011;26723;57.478;12.066;2023-04-30T00:51:47;2.13;;;1.40;;
40995;SDS011;26723;57.478;12.066;2023-04-30T00:54:56;3.23;;;1.50;;
40995;SDS011;26723;57.478;12.066;2023-04-30T00:58:04;3.57;;;1.60;;
40995;SDS011;26723;57.478;12.066;2023-04-30T01:01:16;3.20;;;1.37;;
40995;SDS011;26723;57.478;12.066;2023-04-30T01:04:25;2.90;;;1.50;;
40995;SDS011;26723;57.478;12.066;2023-04-30T01:07:34;2.37;;;1.33;;
40995;SDS011;26723;57.478;12.066;2023-04-30T01:10:52;2.30;;;1.33;;
40995;SDS011;26723;57.478;12.066;2023-04-30T01:14:09;1.50;;;1.40;;
40995;SDS011;26723;57.478;12.066;2023-04-30T01:17:35;2.70;;;1.60;;
40995;SDS011;26723;57.478;12.066;2023-04-30T01:20:52;2.93;;;1.13;;
40995;SDS011;26723;57.478;12.066;2023-04-30T01:24:12;1.40;;;1.30;;
40995;SDS011;26723;57.478;12.066;2023-04-30T01:27:31;1.93;;;1.30;;
40995;SDS011;26723;57.478;12.066;2023-04-30T01:31:17;4.23;;;1.60;;
40995;SDS011;26723;57.478;12.066;2023-04-30T01:34:27;2.07;;;1.30;;
40995;SDS011;26723;57.478;12.066;2023-04-30T01:37:37;2.13;;;1.50;;
40995;SDS011;26723;57.478;12.066;2023-04-30T01:41:04;2.03;;;1.33;;
40995;SDS011;26723;57.478;12.066;2023-04-30T01:44:23;1.27;;;1.17;;
40995;SDS011;26723;57.478;12.066;2023-04-30T01:47:44;1.93;;;1.40;;
40995;SDS011;26723;57.478;12.066;2023-04-30T01:51:00;3.17;;;1.30;;
40995;SDS011;26723;57.478;12.066;2023-04-30T01:54:19;1.37;;;1.30;;
40995;SDS011;26723;57.478;12.066;2023-04-30T01:57:38;2.10;;;1.20;;
40995;SDS011;26723;57.478;12.066;2023-04-30T02:00:51;1.20;;;1.10;;
40995;SDS011;26723;57.478;12.066;2023-04-30T02:04:01;1.83;;;1.00;;
40995;SDS011;26723;57.478;12.066;2023-04-30T02:07:11;1.60;;;1.00;;
40995;SDS011;26723;57.478;12.066;2023-04-30T02:10:27;1.83;;;1.63;;
40995;SDS011;26723;57.478;12.066;2023-04-30T02:13:36;1.83;;;1.20;;
40995;SDS011;26723;57.478;12.066;2023-04-30T02:16:45;1.07;;;1.00;;
40995;SDS011;26723;57.478;12.066;2023-04-30T02:19:55;1.43;;;1.07;;
40995;SDS011;26723;57.478;12.066;2023-04-30T02:23:06;1.53;;;1.20;;
40995;SDS011;26723;57.478;12.066;2023-04-30T02:26:15;1.43;;;1.00;;
40995;SDS011;26723;57.478;12.066;2023-04-30T02:29:24;0.93;;;0.93;;
40995;SDS011;26723;57.478;12.066;2023-04-30T02:32:32;1.27;;;0.97;;
40995;SDS011;26723;57.478;12.066;2023-04-30T02:35:42;1.60;;;1.30;;
40995;SDS011;26723;57.478;12.066;2023-04-30T02:38:50;2.67;;;1.20;;
40995;SDS011;26723;57.478;12.066;2023-04-30T02:41:59;1.37;;;1.10;;
40995;SDS011;26723;57.478;12.066;2023-04-30T02:45:08;1.37;;;0.90;;
40995;SDS011;26723;57.478;12.066;2023-04-30T02:48:19;1.70;;;1.60;;
40995;SDS011;26723;57.478;12.066;2023-04-30T02:51:30;0.93;;;0.93;;
40995;SDS011;26723;57.478;12.066;2023-04-30T02:54:39;1.20;;;0.87;;
40995;SDS011;26723;57.478;12.066;2023-04-30T02:57:48;2.43;;;1.00;;
40995;SDS011;26723;57.478;12.066;2023-04-30T03:00:57;1.40;;;0.83;;
40995;SDS011;26723;57.478;12.066;2023-04-30T03:04:05;2.00;;;0.90;;
40995;SDS011;26723;57.478;12.066;2023-04-30T03:07:16;0.73;;;0.73;;
40995;SDS011;26723;57.478;12.066;2023-04-30T03:10:24;1.20;;;0.90;;
40995;SDS011;26723;57.478;12.066;2023-04-30T03:13:33;1.33;;;0.83;;
40995;SDS011;26723;57.478;12.066;2023-04-30T03:16:41;2.07;;;0.90;;
40995;SDS011;26723;57.478;12.066;2023-04-30T03:19:52;1.53;;;0.97;;
40995;SDS011;26723;57.478;12.066;2023-04-30T03:23:02;1.13;;;0.90;;
40995;SDS011;26723;57.478;12.066;2023-04-30T03:26:11;1.30;;;0.70;;
40995;SDS011;26723;57.478;12.066;2023-04-30T03:29:19;0.93;;;0.80;;
40995;SDS011;26723;57.478;12.066;2023-04-30T03:32:28;1.10;;;1.00;;
40995;SDS011;26723;57.478;12.066;2023-04-30T03:35:36;0.87;;;0.87;;
40995;SDS011;26723;57.478;12.066;2023-04-30T03:38:46;2.20;;;1.00;;
40995;SDS011;26723;57.478;12.066;2023-04-30T03:41:57;2.73;;;1.07;;
40995;SDS011;26723;57.478;12.066;2023-04-30T03:45:06;0.80;;;0.80;;
40995;SDS011;26723;57.478;12.066;2023-04-30T03:48:15;1.73;;;0.90;;
40995;SDS011;26723;57.478;12.066;2023-04-30T03:51:24;2.00;;;1.30;;
40995;SDS011;26723;57.478;12.066;2023-04-30T03:54:35;1.13;;;0.80;;
40995;SDS011;26723;57.478;12.066;2023-04-30T03:57:43;1.20;;;1.10;;
40995;SDS011;26723;57.478;12.066;2023-04-30T04:00:52;0.70;;;0.70;;
40995;SDS011;26723;57.478;12.066;2023-04-30T04:04:01;1.30;;;1.20;;
40995;SDS011;26723;57.478;12.066;2023-04-30T04:07:11;1.07;;;0.83;;
40995;SDS011;26723;57.478;12.066;2023-04-30T04:10:21;1.07;;;0.97;;
40995;SDS011;26723;57.478;12.066;2023-04-30T04:13:30;3.00;;;1.10;;
40995;SDS011;26723;57.478;12.066;2023-04-30T04:16:39;0.87;;;0.63;;
40995;SDS011;26723;57.478;12.066;2023-04-30T04:19:48;1.67;;;0.73;;
40995;SDS011;26723;57.478;12.066;2023-04-30T04:22:57;1.67;;;0.90;;
40995;SDS011;26723;57.478;12.066;2023-04-30T04:26:09;0.97;;;0.80;;
40995;SDS011;26723;57.478;12.066;2023-04-30T04:29:18;0.90;;;0.80;;
40995;SDS011;26723;57.478;12.066;2023-04-30T04:32:26;2.03;;;0.70;;
40995;SDS011;26723;57.478;12.066;2023-04-30T04:35:36;0.70;;;0.63;;
40995;SDS011;26723;57.478;12.066;2023-04-30T04:38:45;1.07;;;0.77;;
40995;SDS011;26723;57.478;12.066;2023-04-30T04:41:55;2.80;;;0.93;;
40995;SDS011;26723;57.478;12.066;2023-04-30T04:45:04;1.53;;;0.90;;
40995;SDS011;26723;57.478;12.066;2023-04-30T04:48:15;1.67;;;0.80;;
40995;SDS011;26723;57.478;12.066;2023-04-30T04:51:23;0.97;;;0.90;;
40995;SDS011;26723;57.478;12.066;2023-04-30T04:54:33;1.13;;;0.70;;
40995;SDS011;26723;57.478;12.066;2023-04-30T04:57:44;0.80;;;0.80;;
40995;SDS011;26723;57.478;12.066;2023-04-30T05:00:52;0.70;;;0.67;;
40995;SDS011;26723;57.478;12.066;2023-04-30T05:04:01;1.07;;;0.80;;
40995;SDS011;26723;57.478;12.066;2023-04-30T05:07:09;1.03;;;0.90;;
40995;SDS011;26723;57.478;12.066;2023-04-30T05:10:18;0.70;;;0.70;;
40995;SDS011;26723;57.478;12.066;2023-04-30T05:13:27;0.60;;;0.60;;
40995;SDS011;26723;57.478;12.066;2023-04-30T05:16:36;0.50;;;0.50;;
40995;SDS011;26723;57.478;12.066;2023-04-30T05:19:45;0.87;;;0.67;;
40995;SDS011;26723;57.478;12.066;2023-04-30T05:22:56;0.60;;;0.60;;
40995;SDS011;26723;57.478;12.066;2023-04-30T05:26:04;1.03;;;0.90;;
40995;SDS011;26723;57.478;12.066;2023-04-30T05:29:14;0.87;;;0.83;;
40995;SDS011;26723;57.478;12.066;2023-04-30T05:32:22;1.17;;;0.70;;
40995;SDS011;26723;57.478;12.066;2023-04-30T05:35:31;0.60;;;0.60;;
40995;SDS011;26723;57.478;12.066;2023-04-30T05:38:41;0.80;;;0.80;;
40995;SDS011;26723;57.478;12.066;2023-04-30T05:41:50;0.70;;;0.70;;
40995;SDS011;26723;57.478;12.066;2023-04-30T05:45:00;1.13;;;0.70;;
40995;SDS011;26723;57.478;12.066;2023-04-30T05:48:09;1.03;;;0.83;;
40995;SDS011;26723;57.478;12.066;2023-04-30T05:51:17;0.70;;;0.70;;
40995;SDS011;26723;57.478;12.066;2023-04-30T05:54:26;1.10;;;0.50;;
40995;SDS011;26723;57.478;12.066;2023-04-30T05:57:34;0.70;;;0.70;;
40995;SDS011;26723;57.478;12.066;2023-04-30T06:00:44;0.87;;;0.60;;
40995;SDS011;26723;57.478;12.066;2023-04-30T06:03:56;2.30;;;0.60;;
40995;SDS011;26723;57.478;12.066;2023-04-30T06:07:06;2.63;;;0.77;;
40995;SDS011;26723;57.478;12.066;2023-04-30T06:10:15;0.93;;;0.73;;
40995;SDS011;26723;57.478;12.066;2023-04-30T06:13:23;0.73;;;0.73;;
40995;SDS011;26723;57.478;12.066;2023-04-30T06:16:33;0.70;;;0.70;;
40995;SDS011;26723;57.478;12.066;2023-04-30T06:19:42;0.97;;;0.77;;
40995;SDS011;26723;57.478;12.066;2023-04-30T06:22:50;1.50;;;0.67;;
40995;SDS011;26723;57.478;12.066;2023-04-30T06:25:59;1.77;;;0.60;;
40995;SDS011;26723;57.478;12.066;2023-04-30T06:29:07;1.33;;;1.10;;
40995;SDS011;26723;57.478;12.066;2023-04-30T06:32:17;1.02;;;0.80;;
40995;SDS011;26723;57.478;12.066;2023-04-30T06:35:26;1.20;;;0.90;;
40995;SDS011;26723;57.478;12.066;2023-04-30T06:38:34;0.88;;;0.57;;
40995;SDS011;26723;57.478;12.066;2023-04-30T06:41:43;1.63;;;0.73;;
40995;SDS011;26723;57.478;12.066;2023-04-30T06:44:53;0.90;;;0.80;;
40995;SDS011;26723;57.478;12.066;2023-04-30T06:48:04;1.17;;;0.90;;
40995;SDS011;26723;57.478;12.066;2023-04-30T06:51:13;0.95;;;0.75;;
40995;SDS011;26723;57.478;12.066;2023-04-30T06:54:21;0.70;;;0.70;;
40995;SDS011;26723;57.478;12.066;2023-04-30T06:57:33;0.95;;;0.80;;
40995;SDS011;26723;57.478;12.066;2023-04-30T07:00:42;0.90;;;0.90;;
40995;SDS011;26723;57.478;12.066;2023-04-30T07:03:52;0.85;;;0.80;;
40995;SDS011;26723;57.478;12.066;2023-04-30T07:07:01;1.58;;;0.95;;
40995;SDS011;26723;57.478;12.066;2023-04-30T07:10:11;0.88;;;0.80;;
40995;SDS011;26723;57.478;12.066;2023-04-30T07:13:20;1.02;;;0.70;;
40995;SDS011;26723;57.478;12.066;2023-04-30T07:16:29;0.75;;;0.68;;
40995;SDS011;26723;57.478;12.066;2023-04-30T07:19:41;1.98;;;0.90;;
40995;SDS011;26723;57.478;12.066;2023-04-30T07:22:49;0.75;;;0.70;;
40995;SDS011;26723;57.478;12.066;2023-04-30T07:26:00;0.70;;;0.70;;
40995;SDS011;26723;57.478;12.066;2023-04-30T07:29:08;1.08;;;0.90;;
40995;SDS011;26723;57.478;12.066;2023-04-30T07:32:18;0.80;;;0.80;;
40995;SDS011;26723;57.478;12.066;2023-04-30T07:35:35;1.02;;;0.80;;
40995;SDS011;26723;57.478;12.066;2023-04-30T07:38:45;1.38;;;0.70;;
40995;SDS011;26723;57.478;12.066;2023-04-30T07:41:53;0.63;;;0.63;;
40995;SDS011;26723;57.478;12.066;2023-04-30T07:45:05;0.85;;;0.80;;
40995;SDS011;26723;57.478;12.066;2023-04-30T07:48:13;3.00;;;1.00;;
40995;SDS011;26723;57.478;12.066;2023-04-30T07:51:24;0.73;;;0.73;;
40995;SDS011;26723;57.478;12.066;2023-04-30T07:54:32;0.60;;;0.60;;
40995;SDS011;26723;57.478;12.066;2023-04-30T07:57:43;1.30;;;0.90;;
40995;SDS011;26723;57.478;12.066;2023-04-30T08:00:51;0.90;;;0.85;;
40995;SDS011;26723;57.478;12.066;2023-04-30T08:03:59;1.25;;;0.57;;
40995;SDS011;26723;57.478;12.066;2023-04-30T08:07:10;1.02;;;0.85;;
40995;SDS011;26723;57.478;12.066;2023-04-30T08:10:19;0.93;;;0.73;;
40995;SDS011;26723;57.478;12.066;2023-04-30T08:13:27;0.80;;;0.80;;
40995;SDS011;26723;57.478;12.066;2023-04-30T08:16:37;0.95;;;0.80;;
40995;SDS011;26723;57.478;12.066;2023-04-30T08:19:45;1.33;;;0.93;;
40995;SDS011;26723;57.478;12.066;2023-04-30T08:22:55;0.80;;;0.80;;
40995;SDS011;26723;57.478;12.066;2023-04-30T08:26:04;1.92;;;1.00;;
40995;SDS011;26723;57.478;12.066;2023-04-30T08:29:12;0.93;;;0.93;;
40995;SDS011;26723;57.478;12.066;2023-04-30T08:32:21;0.70;;;0.70;;
40995;SDS011;26723;57.478;12.066;2023-04-30T08:35:32;2.95;;;0.80;;
40995;SDS011;26723;57.478;12.066;2023-04-30T08:38:42;1.30;;;0.80;;
40995;SDS011;26723;57.478;12.066;2023-04-30T08:41:52;1.10;;;1.00;;
40995;SDS011;26723;57.478;12.066;2023-04-30T08:45:02;1.98;;;0.90;;
40995;SDS011;26723;57.478;12.066;2023-04-30T08:48:11;2.63;;;0.80;;
40995;SDS011;26723;57.478;12.066;2023-04-30T08:51:22;1.42;;;0.70;;
40995;SDS011;26723;57.478;12.066;2023-04-30T08:54:33;1.83;;;0.90;;
40995;SDS011;26723;57.478;12.066;2023-04-30T08:57:43;1.48;;;0.70;;
40995;SDS011;26723;57.478;12.066;2023-04-30T09:00:51;0.98;;;0.90;;
40995;SDS011;26723;57.478;12.066;2023-04-30T09:04:01;0.77;;;0.75;;
40995;SDS011;26723;57.478;12.066;2023-04-30T09:07:10;1.70;;;1.10;;
40995;SDS011;26723;57.478;12.066;2023-04-30T09:10:21;1.35;;;0.65;;
40995;SDS011;26723;57.478;12.066;2023-04-30T09:13:39;1.80;;;0.82;;
40995;SDS011;26723;57.478;12.066;2023-04-30T09:16:49;2.35;;;0.75;;
40995;SDS011;26723;57.478;12.066;2023-04-30T09:20:05;1.45;;;0.68;;
40995;SDS011;26723;57.478;12.066;2023-04-30T09:23:14;0.93;;;0.75;;
40995;SDS011;26723;57.478;12.066;2023-04-30T09:26:29;1.48;;;0.50;;
40995;SDS011;26723;57.478;12.066;2023-04-30T09:29:38;1.17;;;0.85;;
40995;SDS011;26723;57.478;12.066;2023-04-30T09:32:53;1.00;;;0.82;;
40995;SDS011;26723;57.478;12.066;2023-04-30T09:36:07;0.57;;;0.57;;
40995;SDS011;26723;57.478;12.066;2023-04-30T09:39:16;0.98;;;0.50;;
40995;SDS011;26723;57.478;12.066;2023-04-30T09:42:27;0.82;;;0.68;;
40995;SDS011;26723;57.478;12.066;2023-04-30T09:45:40;1.98;;;0.75;;
40995;SDS011;26723;57.478;12.066;2023-04-30T09:48:55;1.13;;;0.55;;
40995;SDS011;26723;57.478;12.066;2023-04-30T09:52:04;1.08;;;0.70;;
40995;SDS011;26723;57.478;12.066;2023-04-30T09:55:13;1.35;;;1.10;;
40995;SDS011;26723;57.478;12.066;2023-04-30T09:58:23;0.35;;;0.35;;
40995;SDS011;26723;57.478;12.066;2023-04-30T10:01:35;1.20;;;1.05;;
40995;SDS011;26723;57.478;12.066;2023-04-30T10:04:48;0.60;;;0.60;;
40995;SDS011;26723;57.478;12.066;2023-04-30T10:08:01;0.73;;;0.70;;
40995;SDS011;26723;57.478;12.066;2023-04-30T10:11:11;0.47;;;0.47;;
40995;SDS011;26723;57.478;12.066;2023-04-30T10:14:25;0.77;;;0.77;;
40995;SDS011;26723;57.478;12.066;2023-04-30T10:17:35;1.33;;;0.50;;
40995;SDS011;26723;57.478;12.066;2023-04-30T10:20:48;1.20;;;0.80;;
40995;SDS011;26723;57.478;12.066;2023-04-30T10:24:00;0.55;;;0.50;;
40995;SDS011;26723;57.478;12.066;2023-04-30T10:27:11;0.85;;;0.70;;
40995;SDS011;26723;57.478;12.066;2023-04-30T10:30:21;2.10;;;0.90;;
40995;SDS011;26723;57.478;12.066;2023-04-30T10:33:31;2.35;;;0.70;;
40995;SDS011;26723;57.478;12.066;2023-04-30T10:36:45;2.10;;;0.80;;
40995;SDS011;26723;57.478;12.066;2023-04-30T10:39:55;0.70;;;0.70;;
40995;SDS011;26723;57.478;12.066;2023-04-30T10:43:03;1.60;;;0.85;;
40995;SDS011;26723;57.478;12.066;2023-04-30T10:46:17;1.42;;;1.05;;
40995;SDS011;26723;57.478;12.066;2023-04-30T10:49:29;1.70;;;1.00;;
40995;SDS011;26723;57.478;12.066;2023-04-30T10:52:42;0.77;;;0.77;;
40995;SDS011;26723;57.478;12.066;2023-04-30T10:55:52;2.22;;;1.02;;
40995;SDS011;26723;57.478;12.066;2023-04-30T10:59:01;1.13;;;1.05;;
40995;SDS011;26723;57.478;12.066;2023-04-30T11:02:12;1.02;;;0.93;;
40995;SDS011;26723;57.478;12.066;2023-04-30T11:05:35;1.73;;;1.00;;
40995;SDS011;26723;57.478;12.066;2023-04-30T11:08:44;1.60;;;1.20;;
40995;SDS011;26723;57.478;12.066;2023-04-30T11:12:00;1.75;;;0.90;;
40995;SDS011;26723;57.478;12.066;2023-04-30T11:15:11;2.15;;;0.88;;
40995;SDS011;26723;57.478;12.066;2023-04-30T11:18:28;1.48;;;0.82;;
40995;SDS011;26723;57.478;12.066;2023-04-30T11:21:39;2.28;;;0.93;;
40995;SDS011;26723;57.478;12.066;2023-04-30T11:24:49;1.92;;;1.05;;
40995;SDS011;26723;57.478;12.066;2023-04-30T11:28:02;1.63;;;1.30;;
40995;SDS011;26723;57.478;12.066;2023-04-30T11:31:10;1.17;;;0.88;;
40995;SDS011;26723;57.478;12.066;2023-04-30T11:34:22;3.17;;;0.85;;
40995;SDS011;26723;57.478;12.066;2023-04-30T11:37:33;1.33;;;0.70;;
40995;SDS011;26723;57.478;12.066;2023-04-30T11:40:43;1.52;;;1.00;;
40995;SDS011;26723;57.478;12.066;2023-04-30T11:43:54;3.13;;;1.02;;
40995;SDS011;26723;57.478;12.066;2023-04-30T11:47:02;1.52;;;0.90;;
40995;SDS011;26723;57.478;12.066;2023-04-30T11:50:13;1.35;;;0.80;;
40995;SDS011;26723;57.478;12.066;2023-04-30T11:53:25;1.52;;;0.90;;
40995;SDS011;26723;57.478;12.066;2023-04-30T11:56:36;1.20;;;1.00;;
40995;SDS011;26723;57.478;12.066;2023-04-30T11:59:47;0.70;;;0.70;;
40995;SDS011;26723;57.478;12.066;2023-04-30T12:02:55;1.38;;;0.90;;
40995;SDS011;26723;57.478;12.066;2023-04-30T12:06:09;2.50;;;0.80;;
40995;SDS011;26723;57.478;12.066;2023-04-30T12:09:21;0.98;;;0.90;;
40995;SDS011;26723;57.478;12.066;2023-04-30T12:12:29;1.45;;;0.93;;
40995;SDS011;26723;57.478;12.066;2023-04-30T12:15:39;2.45;;;0.90;;
40995;SDS011;26723;57.478;12.066;2023-04-30T12:18:48;1.20;;;0.40;;
40995;SDS011;26723;57.478;12.066;2023-04-30T12:22:00;0.90;;;0.70;;
40995;SDS011;26723;57.478;12.066;2023-04-30T12:25:10;0.93;;;0.90;;
40995;SDS011;26723;57.478;12.066;2023-04-30T12:28:21;0.75;;;0.60;;
40995;SDS011;26723;57.478;12.066;2023-04-30T12:31:30;1.30;;;0.98;;
40995;SDS011;26723;57.478;12.066;2023-04-30T12:34:40;0.65;;;0.60;;
40995;SDS011;26723;57.478;12.066;2023-04-30T12:37:52;2.17;;;0.90;;
40995;SDS011;26723;57.478;12.066;2023-04-30T12:41:10;1.88;;;0.93;;
40995;SDS011;26723;57.478;12.066;2023-04-30T12:44:21;0.53;;;0.53;;
40995;SDS011;26723;57.478;12.066;2023-04-30T12:47:30;1.40;;;0.80;;
40995;SDS011;26723;57.478;12.066;2023-04-30T12:50:39;0.95;;;0.88;;
40995;SDS011;26723;57.478;12.066;2023-04-30T12:53:48;1.38;;;0.95;;
40995;SDS011;26723;57.478;12.066;2023-04-30T12:56:57;1.67;;;0.87;;
40995;SDS011;26723;57.478;12.066;2023-04-30T13:00:07;1.27;;;1.15;;
40995;SDS011;26723;57.478;12.066;2023-04-30T13:03:17;1.53;;;1.20;;
40995;SDS011;26723;57.478;12.066;2023-04-30T13:06:27;1.97;;;0.97;;
40995;SDS011;26723;57.478;12.066;2023-04-30T13:09:37;1.35;;;1.02;;
40995;SDS011;26723;57.478;12.066;2023-04-30T13:12:45;1.57;;;1.10;;
40995;SDS011;26723;57.478;12.066;2023-04-30T13:15:54;1.33;;;1.23;;
40995;SDS011;26723;57.478;12.066;2023-04-30T13:19:02;2.53;;;1.00;;
40995;SDS011;26723;57.478;12.066;2023-04-30T13:22:20;1.85;;;1.05;;
40995;SDS011;26723;57.478;12.066;2023-04-30T13:25:32;1.77;;;1.10;;
40995;SDS011;26723;57.478;12.066;2023-04-30T13:28:41;1.07;;;0.97;;
40995;SDS011;26723;57.478;12.066;2023-04-30T13:31:50;3.23;;;1.10;;
40995;SDS011;26723;57.478;12.066;2023-04-30T13:34:59;2.87;;;1.10;;
40995;SDS011;26723;57.478;12.066;2023-04-30T13:38:07;1.73;;;1.20;;
40995;SDS011;26723;57.478;12.066;2023-04-30T13:41:17;1.00;;;1.00;;
40995;SDS011;26723;57.478;12.066;2023-04-30T13:44:26;1.27;;;1.00;;
40995;SDS011;26723;57.478;12.066;2023-04-30T13:47:38;1.70;;;1.13;;
40995;SDS011;26723;57.478;12.066;2023-04-30T13:50:46;2.20;;;1.10;;
40995;SDS011;26723;57.478;12.066;2023-04-30T13:53:55;2.37;;;1.30;;
40995;SDS011;26723;57.478;12.066;2023-04-30T13:57:05;2.10;;;1.00;;
40995;SDS011;26723;57.478;12.066;2023-04-30T14:00:13;0.90;;;0.90;;
40995;SDS011;26723;57.478;12.066;2023-04-30T14:03:22;2.23;;;1.20;;
40995;SDS011;26723;57.478;12.066;2023-04-30T14:06:31;3.05;;;1.45;;
40995;SDS011;26723;57.478;12.066;2023-04-30T14:09:41;3.40;;;1.30;;
40995;SDS011;26723;57.478;12.066;2023-04-30T14:12:51;1.13;;;1.07;;
40995;SDS011;26723;57.478;12.066;2023-04-30T14:16:00;1.83;;;1.20;;
40995;SDS011;26723;57.478;12.066;2023-04-30T14:19:09;1.53;;;1.17;;
40995;SDS011;26723;57.478;12.066;2023-04-30T14:22:17;2.00;;;1.10;;
40995;SDS011;26723;57.478;12.066;2023-04-30T14:25:27;1.97;;;1.50;;
40995;SDS011;26723;57.478;12.066;2023-04-30T14:28:37;2.00;;;1.10;;
40995;SDS011;26723;57.478;12.066;2023-04-30T14:31:45;2.17;;;1.00;;
40995;SDS011;26723;57.478;12.066;2023-04-30T14:34:54;2.27;;;1.30;;
40995;SDS011;26723;57.478;12.066;2023-04-30T14:38:02;3.10;;;1.03;;
40995;SDS011;26723;57.478;12.066;2023-04-30T14:41:11;1.77;;;1.20;;
40995;SDS011;26723;57.478;12.066;2023-04-30T14:44:21;2.77;;;1.23;;
40995;SDS011;26723;57.478;12.066;2023-04-30T14:47:31;2.70;;;1.20;;
40995;SDS011;26723;57.478;12.066;2023-04-30T14:50:39;2.10;;;1.20;;
40995;SDS011;26723;57.478;12.066;2023-04-30T14:53:48;3.40;;;1.57;;
40995;SDS011;26723;57.478;12.066;2023-04-30T14:56:56;2.97;;;1.03;;
40995;SDS011;26723;57.478;12.066;2023-04-30T15:00:07;1.43;;;1.10;;
40995;SDS011;26723;57.478;12.066;2023-04-30T15:03:17;2.67;;;1.20;;
40995;SDS011;26723;57.478;12.066;2023-04-30T15:06:27;1.63;;;1.00;;
40995;SDS011;26723;57.478;12.066;2023-04-30T15:09:36;1.60;;;1.17;;
40995;SDS011;26723;57.478;12.066;2023-04-30T15:12:46;1.60;;;1.10;;
40995;SDS011;26723;57.478;12.066;2023-04-30T15:15:56;2.13;;;1.20;;
40995;SDS011;26723;57.478;12.066;2023-04-30T15:19:05;2.03;;;1.00;;
40995;SDS011;26723;57.478;12.066;2023-04-30T15:22:13;1.07;;;0.87;;
40995;SDS011;26723;57.478;12.066;2023-04-30T15:25:22;3.03;;;1.20;;
40995;SDS011;26723;57.478;12.066;2023-04-30T15:28:31;1.57;;;1.03;;
40995;SDS011;26723;57.478;12.066;2023-04-30T15:31:41;2.80;;;1.20;;
40995;SDS011;26723;57.478;12.066;2023-04-30T15:34:49;2.10;;;1.10;;
40995;SDS011;26723;57.478;12.066;2023-04-30T15:37:58;1.50;;;1.00;;
40995;SDS011;26723;57.478;12.066;2023-04-30T15:41:06;1.70;;;1.17;;
40995;SDS011;26723;57.478;12.066;2023-04-30T15:44:15;1.77;;;1.00;;
40995;SDS011;26723;57.478;12.066;2023-04-30T15:47:25;1.00;;;1.00;;
40995;SDS011;26723;57.478;12.066;2023-04-30T15:50:33;1.30;;;0.83;;
40995;SDS011;26723;57.478;12.066;2023-04-30T15:53:42;1.57;;;1.10;;
40995;SDS011;26723;57.478;12.066;2023-04-30T15:56:50;2.20;;;1.10;;
40995;SDS011;26723;57.478;12.066;2023-04-30T15:59:59;2.10;;;1.00;;
40995;SDS011;26723;57.478;12.066;2023-04-30T16:03:18;1.83;;;1.20;;
40995;SDS011;26723;57.478;12.066;2023-04-30T16:06:42;3.30;;;1.60;;
40995;SDS011;26723;57.478;12.066;2023-04-30T16:09:51;3.27;;;1.80;;
40995;SDS011;26723;57.478;12.066;2023-04-30T16:13:00;4.33;;;1.30;;
40995;SDS011;26723;57.478;12.066;2023-04-30T16:16:09;3.07;;;1.50;;
40995;SDS011;26723;57.478;12.066;2023-04-30T16:19:20;3.23;;;1.73;;
40995;SDS011;26723;57.478;12.066;2023-04-30T16:22:29;1.50;;;1.40;;
40995;SDS011;26723;57.478;12.066;2023-04-30T16:25:38;2.57;;;1.40;;
40995;SDS011;26723;57.478;12.066;2023-04-30T16:28:47;4.17;;;1.97;;
40995;SDS011;26723;57.478;12.066;2023-04-30T16:31:56;2.73;;;1.30;;
40995;SDS011;26723;57.478;12.066;2023-04-30T16:35:07;3.23;;;1.53;;
40995;SDS011;26723;57.478;12.066;2023-04-30T16:38:16;2.00;;;1.80;;
40995;SDS011;26723;57.478;12.066;2023-04-30T16:41:27;2.07;;;1.33;;
40995;SDS011;26723;57.478;12.066;2023-04-30T16:44:36;3.70;;;1.70;;
40995;SDS011;26723;57.478;12.066;2023-04-30T16:47:45;4.30;;;1.80;;
40995;SDS011;26723;57.478;12.066;2023-04-30T16:50:55;3.57;;;1.80;;
40995;SDS011;26723;57.478;12.066;2023-04-30T16:54:04;3.33;;;1.60;;
40995;SDS011;26723;57.478;12.066;2023-04-30T16:57:12;2.10;;;1.70;;
40995;SDS011;26723;57.478;12.066;2023-04-30T17:00:22;4.07;;;1.47;;
40995;SDS011;26723;57.478;12.066;2023-04-30T17:03:30;3.33;;;1.93;;
40995;SDS011;26723;57.478;12.066;2023-04-30T17:06:41;2.53;;;1.87;;
40995;SDS011;26723;57.478;12.066;2023-04-30T17:09:51;3.07;;;1.80;;
40995;SDS011;26723;57.478;12.066;2023-04-30T17:13:03;3.97;;;1.80;;
40995;SDS011;26723;57.478;12.066;2023-04-30T17:16:12;2.20;;;1.63;;
40995;SDS011;26723;57.478;12.066;2023-04-30T17:19:21;3.60;;;1.70;;
40995;SDS011;26723;57.478;12.066;2023-04-30T17:22:38;5.07;;;1.87;;
40995;SDS011;26723;57.478;12.066;2023-04-30T17:25:47;3.47;;;1.53;;
40995;SDS011;26723;57.478;12.066;2023-04-30T17:28:55;2.83;;;1.80;;
40995;SDS011;26723;57.478;12.066;2023-04-30T17:32:04;4.17;;;1.90;;
40995;SDS011;26723;57.478;12.066;2023-04-30T17:35:13;2.30;;;1.60;;
40995;SDS011;26723;57.478;12.066;2023-04-30T17:38:27;2.67;;;1.50;;
40995;SDS011;26723;57.478;12.066;2023-04-30T17:41:39;3.67;;;1.83;;
40995;SDS011;26723;57.478;12.066;2023-04-30T17:44:51;2.47;;;1.73;;
40995;SDS011;26723;57.478;12.066;2023-04-30T17:47:59;2.43;;;1.60;;
40995;SDS011;26723;57.478;12.066;2023-04-30T17:51:08;2.90;;;1.83;;
40995;SDS011;26723;57.478;12.066;2023-04-30T17:54:18;5.00;;;2.50;;
40995;SDS011;26723;57.478;12.066;2023-04-30T17:57:26;3.90;;;1.97;;
40995;SDS011;26723;57.478;12.066;2023-04-30T18:00:39;4.43;;;2.17;;
40995;SDS011;26723;57.478;12.066;2023-04-30T18:03:49;3.80;;;1.83;;
40995;SDS011;26723;57.478;12.066;2023-04-30T18:06:59;3.63;;;1.83;;
40995;SDS011;26723;57.478;12.066;2023-04-30T18:10:09;1.70;;;1.60;;
40995;SDS011;26723;57.478;12.066;2023-04-30T18:13:17;4.47;;;1.70;;
40995;SDS011;26723;57.478;12.066;2023-04-30T18:16:26;2.10;;;1.90;;
40995;SDS011;26723;57.478;12.066;2023-04-30T18:19:35;3.13;;;1.70;;
40995;SDS011;26723;57.478;12.066;2023-04-30T18:22:49;4.80;;;2.03;;
40995;SDS011;26723;57.478;12.066;2023-04-30T18:25:59;1.70;;;1.60;;
40995;SDS011;26723;57.478;12.066;2023-04-30T18:29:07;2.23;;;1.80;;
40995;SDS011;26723;57.478;12.066;2023-04-30T18:32:17;3.00;;;1.83;;
40995;SDS011;26723;57.478;12.066;2023-04-30T18:35:25;2.20;;;1.60;;
40995;SDS011;26723;57.478;12.066;2023-04-30T18:38:34;2.37;;;1.60;;
40995;SDS011;26723;57.478;12.066;2023-04-30T18:41:44;2.70;;;1.70;;
40995;SDS011;26723;57.478;12.066;2023-04-30T18:44:53;2.57;;;1.73;;
40995;SDS011;26723;57.478;12.066;2023-04-30T18:48:03;2.30;;;1.90;;